sensor_id;sensor_type;location;lat;lon;timestamp;P1;durP1;ratioP1;P2;durP2;ratioP2
23266;SDS011;11802;53.160;8.214;2022-08-04T00:02:06;37.22;;;18.75;;
23266;SDS011;11802;53.160;8.214;2022-08-04T00:04:44;40.15;;;20.60;;
23266;SDS011;11802;53.160;8.214;2022-08-04T00:07:22;38.00;;;20.25;;
23266;SDS011;11802;53.160;8.214;2022-08-04T00:10:00;38.35;;;20.90;;
23266;SDS011;11802;53.160;8.214;2022-08-04T00:12:30;35.42;;;18.88;;
23266;SDS011;11802;53.160;8.214;2022-08-04T00:14:58;34.28;;;19.92;;
23266;SDS011;11802;53.160;8.214;2022-08-04T00:17:28;30.75;;;19.02;;
23266;SDS011;11802;53.160;8.214;2022-08-04T00:20:00;39.00;;;20.48;;
23266;SDS011;11802;53.160;8.214;2022-08-04T00:22:28;33.30;;;19.67;;
23266;SDS011;11802;53.160;8.214;2022-08-04T00:24:55;37.20;;;20.00;;
23266;SDS011;11802;53.160;8.214;2022-08-04T00:27:21;30.55;;;18.52;;
23266;SDS011;11802;53.160;8.214;2022-08-04T00:29:48;34.67;;;19.52;;
23266;SDS011;11802;53.160;8.214;2022-08-04T00:32:13;34.28;;;18.55;;
23266;SDS011;11802;53.160;8.214;2022-08-04T00:34:42;33.33;;;19.38;;
23266;SDS011;11802;53.160;8.214;2022-08-04T00:37:09;37.08;;;19.75;;
23266;SDS011;11802;53.160;8.214;2022-08-04T00:39:35;31.88;;;18.38;;
23266;SDS011;11802;53.160;8.214;2022-08-04T00:53:35;32.83;;;18.40;;
23266;SDS011;11802;53.160;8.214;2022-08-04T00:56:14;36.72;;;19.38;;
23266;SDS011;11802;53.160;8.214;2022-08-04T00:58:58;33.05;;;18.92;;
23266;SDS011;11802;53.160;8.214;2022-08-04T01:01:34;38.00;;;20.73;;
23266;SDS011;11802;53.160;8.214;2022-08-04T01:04:23;33.25;;;20.42;;
23266;SDS011;11802;53.160;8.214;2022-08-04T01:07:10;35.60;;;20.05;;
23266;SDS011;11802;53.160;8.214;2022-08-04T01:09:50;33.72;;;19.80;;
23266;SDS011;11802;53.160;8.214;2022-08-04T01:20:25;33.28;;;20.42;;
23266;SDS011;11802;53.160;8.214;2022-08-04T01:26:10;36.35;;;20.55;;
23266;SDS011;11802;53.160;8.214;2022-08-04T01:31:29;35.13;;;20.13;;
23266;SDS011;11802;53.160;8.214;2022-08-04T01:34:15;41.17;;;21.30;;
23266;SDS011;11802;53.160;8.214;2022-08-04T01:36:46;47.35;;;22.58;;
23266;SDS011;11802;53.160;8.214;2022-08-04T01:39:44;34.17;;;20.52;;
23266;SDS011;11802;53.160;8.214;2022-08-04T01:42:16;35.78;;;21.95;;
23266;SDS011;11802;53.160;8.214;2022-08-04T01:44:46;38.05;;;21.02;;
23266;SDS011;11802;53.160;8.214;2022-08-04T01:47:12;37.67;;;22.45;;
23266;SDS011;11802;53.160;8.214;2022-08-04T01:49:40;35.85;;;22.17;;
23266;SDS011;11802;53.160;8.214;2022-08-04T01:52:11;35.58;;;22.80;;
23266;SDS011;11802;53.160;8.214;2022-08-04T01:54:42;37.35;;;22.27;;
23266;SDS011;11802;53.160;8.214;2022-08-04T01:57:10;38.25;;;21.95;;
23266;SDS011;11802;53.160;8.214;2022-08-04T01:59:37;39.45;;;22.85;;
23266;SDS011;11802;53.160;8.214;2022-08-04T02:02:03;33.35;;;21.95;;
23266;SDS011;11802;53.160;8.214;2022-08-04T02:04:30;33.10;;;21.55;;
23266;SDS011;11802;53.160;8.214;2022-08-04T02:07:06;35.03;;;22.75;;
23266;SDS011;11802;53.160;8.214;2022-08-04T02:13:36;37.70;;;22.98;;
23266;SDS011;11802;53.160;8.214;2022-08-04T02:18:30;39.60;;;22.67;;
23266;SDS011;11802;53.160;8.214;2022-08-04T02:21:12;34.30;;;21.33;;
23266;SDS011;11802;53.160;8.214;2022-08-04T02:23:42;35.55;;;21.90;;
23266;SDS011;11802;53.160;8.214;2022-08-04T02:26:12;36.70;;;21.13;;
23266;SDS011;11802;53.160;8.214;2022-08-04T02:31:38;30.75;;;18.15;;
23266;SDS011;11802;53.160;8.214;2022-08-04T02:34:31;35.17;;;20.33;;
23266;SDS011;11802;53.160;8.214;2022-08-04T02:37:04;27.75;;;19.25;;
23266;SDS011;11802;53.160;8.214;2022-08-04T02:39:32;30.63;;;18.55;;
23266;SDS011;11802;53.160;8.214;2022-08-04T02:41:59;31.42;;;19.67;;
23266;SDS011;11802;53.160;8.214;2022-08-04T02:44:28;35.03;;;20.42;;
23266;SDS011;11802;53.160;8.214;2022-08-04T02:46:55;30.08;;;18.40;;
23266;SDS011;11802;53.160;8.214;2022-08-04T02:49:23;33.30;;;18.73;;
23266;SDS011;11802;53.160;8.214;2022-08-04T02:51:51;35.25;;;18.70;;
23266;SDS011;11802;53.160;8.214;2022-08-04T02:54:19;32.63;;;17.85;;
23266;SDS011;11802;53.160;8.214;2022-08-04T02:56:50;29.35;;;18.23;;
23266;SDS011;11802;53.160;8.214;2022-08-04T02:59:17;30.60;;;17.45;;
23266;SDS011;11802;53.160;8.214;2022-08-04T03:01:47;36.45;;;19.52;;
23266;SDS011;11802;53.160;8.214;2022-08-04T03:12:27;27.38;;;17.50;;
23266;SDS011;11802;53.160;8.214;2022-08-04T03:15:23;30.92;;;16.92;;
23266;SDS011;11802;53.160;8.214;2022-08-04T03:35:10;29.50;;;17.27;;
23266;SDS011;11802;53.160;8.214;2022-08-04T03:38:14;29.20;;;17.77;;
23266;SDS011;11802;53.160;8.214;2022-08-04T03:44:16;29.60;;;16.85;;
23266;SDS011;11802;53.160;8.214;2022-08-04T04:04:39;27.92;;;15.55;;
23266;SDS011;11802;53.160;8.214;2022-08-04T04:10:20;23.60;;;15.13;;
23266;SDS011;11802;53.160;8.214;2022-08-04T04:15:46;26.20;;;13.77;;
23266;SDS011;11802;53.160;8.214;2022-08-04T04:32:28;18.67;;;10.80;;
23266;SDS011;11802;53.160;8.214;2022-08-04T04:35:10;20.90;;;11.00;;
23266;SDS011;11802;53.160;8.214;2022-08-04T04:37:48;23.98;;;11.00;;
23266;SDS011;11802;53.160;8.214;2022-08-04T04:42:57;23.92;;;9.88;;
23266;SDS011;11802;53.160;8.214;2022-08-04T04:45:48;16.55;;;8.20;;
23266;SDS011;11802;53.160;8.214;2022-08-04T04:54:04;13.95;;;8.13;;
23266;SDS011;11802;53.160;8.214;2022-08-04T04:59:15;16.88;;;7.60;;
23266;SDS011;11802;53.160;8.214;2022-08-04T05:01:51;15.43;;;8.35;;
23266;SDS011;11802;53.160;8.214;2022-08-04T05:04:35;15.82;;;7.90;;
23266;SDS011;11802;53.160;8.214;2022-08-04T05:10:05;16.63;;;8.05;;
23266;SDS011;11802;53.160;8.214;2022-08-04T05:15:29;15.55;;;6.72;;
23266;SDS011;11802;53.160;8.214;2022-08-04T05:18:01;12.15;;;6.57;;
23266;SDS011;11802;53.160;8.214;2022-08-04T05:20:37;12.27;;;6.10;;
23266;SDS011;11802;53.160;8.214;2022-08-04T05:23:10;13.98;;;6.38;;
23266;SDS011;11802;53.160;8.214;2022-08-04T05:26:00;14.60;;;6.55;;
23266;SDS011;11802;53.160;8.214;2022-08-04T05:28:32;18.23;;;6.18;;
23266;SDS011;11802;53.160;8.214;2022-08-04T05:31:11;14.85;;;6.60;;
23266;SDS011;11802;53.160;8.214;2022-08-04T05:33:50;16.10;;;5.68;;
23266;SDS011;11802;53.160;8.214;2022-08-04T05:36:47;14.05;;;5.35;;
23266;SDS011;11802;53.160;8.214;2022-08-04T05:39:21;17.65;;;4.93;;
23266;SDS011;11802;53.160;8.214;2022-08-04T05:41:49;15.18;;;5.25;;
23266;SDS011;11802;53.160;8.214;2022-08-04T05:44:15;13.38;;;4.88;;
23266;SDS011;11802;53.160;8.214;2022-08-04T05:46:43;12.95;;;4.45;;
23266;SDS011;11802;53.160;8.214;2022-08-04T05:49:12;10.65;;;3.63;;
23266;SDS011;11802;53.160;8.214;2022-08-04T05:51:38;12.75;;;4.25;;
23266;SDS011;11802;53.160;8.214;2022-08-04T05:54:05;11.10;;;4.32;;
23266;SDS011;11802;53.160;8.214;2022-08-04T05:56:32;9.95;;;3.95;;
23266;SDS011;11802;53.160;8.214;2022-08-04T05:58:58;10.30;;;3.90;;
23266;SDS011;11802;53.160;8.214;2022-08-04T06:01:25;13.45;;;4.15;;
23266;SDS011;11802;53.160;8.214;2022-08-04T06:03:52;12.98;;;4.13;;
23266;SDS011;11802;53.160;8.214;2022-08-04T06:06:20;13.18;;;4.80;;
23266;SDS011;11802;53.160;8.214;2022-08-04T06:08:46;12.18;;;4.28;;
23266;SDS011;11802;53.160;8.214;2022-08-04T06:11:12;10.55;;;3.65;;
23266;SDS011;11802;53.160;8.214;2022-08-04T06:13:49;10.68;;;4.35;;
23266;SDS011;11802;53.160;8.214;2022-08-04T06:16:33;10.38;;;4.13;;
23266;SDS011;11802;53.160;8.214;2022-08-04T06:19:03;13.50;;;4.55;;
23266;SDS011;11802;53.160;8.214;2022-08-04T06:21:33;13.50;;;4.50;;
23266;SDS011;11802;53.160;8.214;2022-08-04T06:24:01;13.23;;;4.63;;
23266;SDS011;11802;53.160;8.214;2022-08-04T06:26:28;14.50;;;4.68;;
23266;SDS011;11802;53.160;8.214;2022-08-04T06:28:56;13.35;;;4.80;;
23266;SDS011;11802;53.160;8.214;2022-08-04T06:31:23;15.60;;;5.00;;
23266;SDS011;11802;53.160;8.214;2022-08-04T06:34:10;12.55;;;4.57;;
23266;SDS011;11802;53.160;8.214;2022-08-04T06:36:38;14.98;;;4.28;;
23266;SDS011;11802;53.160;8.214;2022-08-04T06:39:05;14.90;;;3.78;;
23266;SDS011;11802;53.160;8.214;2022-08-04T06:41:32;14.93;;;3.72;;
23266;SDS011;11802;53.160;8.214;2022-08-04T06:43:59;11.77;;;4.03;;
23266;SDS011;11802;53.160;8.214;2022-08-04T06:46:28;14.20;;;3.55;;
23266;SDS011;11802;53.160;8.214;2022-08-04T06:48:54;12.38;;;3.65;;
23266;SDS011;11802;53.160;8.214;2022-08-04T06:51:21;10.35;;;3.72;;
23266;SDS011;11802;53.160;8.214;2022-08-04T06:53:47;12.20;;;3.85;;
23266;SDS011;11802;53.160;8.214;2022-08-04T06:56:13;14.73;;;3.55;;
23266;SDS011;11802;53.160;8.214;2022-08-04T06:58:40;11.95;;;3.45;;
23266;SDS011;11802;53.160;8.214;2022-08-04T07:01:07;13.45;;;3.40;;
23266;SDS011;11802;53.160;8.214;2022-08-04T07:03:34;14.13;;;3.28;;
23266;SDS011;11802;53.160;8.214;2022-08-04T07:06:00;12.70;;;3.38;;
23266;SDS011;11802;53.160;8.214;2022-08-04T07:08:26;11.80;;;2.90;;
23266;SDS011;11802;53.160;8.214;2022-08-04T07:10:53;14.98;;;2.97;;
23266;SDS011;11802;53.160;8.214;2022-08-04T07:13:21;13.05;;;3.55;;
23266;SDS011;11802;53.160;8.214;2022-08-04T07:15:47;13.65;;;2.75;;
23266;SDS011;11802;53.160;8.214;2022-08-04T07:18:13;7.18;;;2.80;;
23266;SDS011;11802;53.160;8.214;2022-08-04T07:20:43;15.82;;;3.25;;
23266;SDS011;11802;53.160;8.214;2022-08-04T07:23:10;8.98;;;2.72;;
23266;SDS011;11802;53.160;8.214;2022-08-04T07:25:41;11.23;;;2.83;;
23266;SDS011;11802;53.160;8.214;2022-08-04T07:28:07;10.40;;;3.20;;
23266;SDS011;11802;53.160;8.214;2022-08-04T07:30:33;11.32;;;2.70;;
23266;SDS011;11802;53.160;8.214;2022-08-04T07:32:59;9.30;;;3.20;;
23266;SDS011;11802;53.160;8.214;2022-08-04T07:35:26;8.85;;;3.17;;
23266;SDS011;11802;53.160;8.214;2022-08-04T07:37:53;9.88;;;2.50;;
23266;SDS011;11802;53.160;8.214;2022-08-04T07:40:19;9.32;;;3.00;;
23266;SDS011;11802;53.160;8.214;2022-08-04T07:42:45;7.25;;;2.00;;
23266;SDS011;11802;53.160;8.214;2022-08-04T07:45:11;9.65;;;2.13;;
23266;SDS011;11802;53.160;8.214;2022-08-04T07:47:37;8.35;;;2.25;;
23266;SDS011;11802;53.160;8.214;2022-08-04T07:50:04;6.47;;;2.00;;
23266;SDS011;11802;53.160;8.214;2022-08-04T07:52:33;7.78;;;2.35;;
23266;SDS011;11802;53.160;8.214;2022-08-04T07:55:00;10.52;;;2.33;;
23266;SDS011;11802;53.160;8.214;2022-08-04T07:57:26;10.77;;;2.03;;
23266;SDS011;11802;53.160;8.214;2022-08-04T07:59:51;8.57;;;2.20;;
23266;SDS011;11802;53.160;8.214;2022-08-04T08:02:17;7.38;;;2.28;;
23266;SDS011;11802;53.160;8.214;2022-08-04T08:04:44;8.77;;;2.30;;
23266;SDS011;11802;53.160;8.214;2022-08-04T08:07:11;10.32;;;2.17;;
23266;SDS011;11802;53.160;8.214;2022-08-04T08:09:36;6.72;;;2.03;;
23266;SDS011;11802;53.160;8.214;2022-08-04T08:12:02;9.82;;;2.50;;
23266;SDS011;11802;53.160;8.214;2022-08-04T08:14:29;6.00;;;2.15;;
23266;SDS011;11802;53.160;8.214;2022-08-04T08:16:55;9.98;;;2.45;;
23266;SDS011;11802;53.160;8.214;2022-08-04T08:19:23;5.65;;;2.28;;
23266;SDS011;11802;53.160;8.214;2022-08-04T08:21:48;9.93;;;2.33;;
23266;SDS011;11802;53.160;8.214;2022-08-04T08:24:14;9.23;;;2.72;;
23266;SDS011;11802;53.160;8.214;2022-08-04T08:26:40;7.53;;;2.30;;
23266;SDS011;11802;53.160;8.214;2022-08-04T08:29:06;5.40;;;2.00;;
23266;SDS011;11802;53.160;8.214;2022-08-04T08:31:32;9.25;;;2.13;;
23266;SDS011;11802;53.160;8.214;2022-08-04T08:33:58;7.80;;;2.20;;
23266;SDS011;11802;53.160;8.214;2022-08-04T08:36:28;6.97;;;1.90;;
23266;SDS011;11802;53.160;8.214;2022-08-04T08:39:12;6.38;;;1.85;;
23266;SDS011;11802;53.160;8.214;2022-08-04T08:42:06;4.22;;;1.75;;
23266;SDS011;11802;53.160;8.214;2022-08-04T08:51:04;5.60;;;2.65;;
23266;SDS011;11802;53.160;8.214;2022-08-04T08:54:02;8.48;;;2.20;;
23266;SDS011;11802;53.160;8.214;2022-08-04T08:56:59;8.88;;;2.22;;
23266;SDS011;11802;53.160;8.214;2022-08-04T09:03:05;4.60;;;2.00;;
23266;SDS011;11802;53.160;8.214;2022-08-04T09:11:05;6.13;;;2.17;;
23266;SDS011;11802;53.160;8.214;2022-08-04T09:13:39;5.20;;;2.35;;
23266;SDS011;11802;53.160;8.214;2022-08-04T09:16:18;3.97;;;2.08;;
23266;SDS011;11802;53.160;8.214;2022-08-04T09:23:59;4.10;;;2.08;;
23266;SDS011;11802;53.160;8.214;2022-08-04T09:27:04;4.90;;;2.10;;
23266;SDS011;11802;53.160;8.214;2022-08-04T09:32:40;5.43;;;2.20;;
23266;SDS011;11802;53.160;8.214;2022-08-04T09:35:24;5.50;;;2.30;;
23266;SDS011;11802;53.160;8.214;2022-08-04T09:38:19;6.68;;;2.35;;
23266;SDS011;11802;53.160;8.214;2022-08-04T09:49:17;7.30;;;2.33;;
23266;SDS011;11802;53.160;8.214;2022-08-04T10:00:03;5.30;;;2.38;;
23266;SDS011;11802;53.160;8.214;2022-08-04T10:02:34;7.22;;;2.55;;
23266;SDS011;11802;53.160;8.214;2022-08-04T10:05:22;4.20;;;2.20;;
23266;SDS011;11802;53.160;8.214;2022-08-04T10:08:01;5.50;;;2.45;;
23266;SDS011;11802;53.160;8.214;2022-08-04T10:10:33;6.88;;;2.28;;
23266;SDS011;11802;53.160;8.214;2022-08-04T10:13:19;5.80;;;3.08;;
23266;SDS011;11802;53.160;8.214;2022-08-04T10:16:23;4.68;;;2.28;;
23266;SDS011;11802;53.160;8.214;2022-08-04T10:19:06;6.75;;;2.50;;
23266;SDS011;11802;53.160;8.214;2022-08-04T10:21:53;5.60;;;2.65;;
23266;SDS011;11802;53.160;8.214;2022-08-04T10:27:10;7.38;;;2.20;;
23266;SDS011;11802;53.160;8.214;2022-08-04T10:29:44;5.32;;;2.20;;
23266;SDS011;11802;53.160;8.214;2022-08-04T10:32:22;5.75;;;2.10;;
23266;SDS011;11802;53.160;8.214;2022-08-04T10:37:23;4.38;;;1.92;;
23266;SDS011;11802;53.160;8.214;2022-08-04T10:40:07;3.78;;;2.35;;
23266;SDS011;11802;53.160;8.214;2022-08-04T10:42:58;3.63;;;1.98;;
23266;SDS011;11802;53.160;8.214;2022-08-04T10:45:32;7.03;;;2.40;;
23266;SDS011;11802;53.160;8.214;2022-08-04T10:48:25;4.85;;;2.15;;
23266;SDS011;11802;53.160;8.214;2022-08-04T10:51:01;3.13;;;1.90;;
23266;SDS011;11802;53.160;8.214;2022-08-04T10:53:27;5.00;;;2.10;;
23266;SDS011;11802;53.160;8.214;2022-08-04T10:56:00;6.20;;;2.10;;
23266;SDS011;11802;53.160;8.214;2022-08-04T10:58:30;3.60;;;2.00;;
23266;SDS011;11802;53.160;8.214;2022-08-04T11:01:01;7.28;;;2.10;;
23266;SDS011;11802;53.160;8.214;2022-08-04T11:03:46;2.58;;;2.20;;
23266;SDS011;11802;53.160;8.214;2022-08-04T11:06:15;6.50;;;2.05;;
23266;SDS011;11802;53.160;8.214;2022-08-04T11:08:49;4.35;;;2.30;;
23266;SDS011;11802;53.160;8.214;2022-08-04T11:14:03;4.28;;;1.88;;
23266;SDS011;11802;53.160;8.214;2022-08-04T11:16:43;6.15;;;2.28;;
23266;SDS011;11802;53.160;8.214;2022-08-04T11:22:22;6.50;;;2.55;;
23266;SDS011;11802;53.160;8.214;2022-08-04T11:31:22;5.32;;;2.47;;
23266;SDS011;11802;53.160;8.214;2022-08-04T11:36:07;5.65;;;2.33;;
23266;SDS011;11802;53.160;8.214;2022-08-04T11:44:33;5.30;;;2.38;;
23266;SDS011;11802;53.160;8.214;2022-08-04T11:49:47;4.50;;;2.47;;
23266;SDS011;11802;53.160;8.214;2022-08-04T11:52:19;4.97;;;2.15;;
23266;SDS011;11802;53.160;8.214;2022-08-04T11:54:45;5.55;;;1.98;;
23266;SDS011;11802;53.160;8.214;2022-08-04T11:57:13;6.07;;;2.55;;
23266;SDS011;11802;53.160;8.214;2022-08-04T11:59:39;7.00;;;2.42;;
23266;SDS011;11802;53.160;8.214;2022-08-04T12:05:11;8.00;;;2.97;;
23266;SDS011;11802;53.160;8.214;2022-08-04T12:07:48;8.73;;;2.70;;
23266;SDS011;11802;53.160;8.214;2022-08-04T12:10:25;5.82;;;2.78;;
23266;SDS011;11802;53.160;8.214;2022-08-04T12:13:26;10.55;;;3.25;;
23266;SDS011;11802;53.160;8.214;2022-08-04T12:18:51;9.27;;;3.30;;
23266;SDS011;11802;53.160;8.214;2022-08-04T12:21:52;7.97;;;2.85;;
23266;SDS011;11802;53.160;8.214;2022-08-04T12:24:22;9.05;;;2.92;;
23266;SDS011;11802;53.160;8.214;2022-08-04T12:26:52;10.55;;;3.45;;
23266;SDS011;11802;53.160;8.214;2022-08-04T12:29:22;7.18;;;3.00;;
23266;SDS011;11802;53.160;8.214;2022-08-04T12:31:54;12.32;;;3.20;;
23266;SDS011;11802;53.160;8.214;2022-08-04T12:34:40;10.23;;;3.47;;
23266;SDS011;11802;53.160;8.214;2022-08-04T12:40:05;11.27;;;3.45;;
23266;SDS011;11802;53.160;8.214;2022-08-04T12:42:43;9.43;;;3.67;;
23266;SDS011;11802;53.160;8.214;2022-08-04T12:45:14;5.50;;;2.65;;
23266;SDS011;11802;53.160;8.214;2022-08-04T12:47:41;8.13;;;2.95;;
23266;SDS011;11802;53.160;8.214;2022-08-04T12:50:09;12.50;;;3.10;;
23266;SDS011;11802;53.160;8.214;2022-08-04T12:52:42;13.30;;;3.05;;
23266;SDS011;11802;53.160;8.214;2022-08-04T12:55:13;7.30;;;3.00;;
23266;SDS011;11802;53.160;8.214;2022-08-04T12:57:40;8.32;;;2.97;;
23266;SDS011;11802;53.160;8.214;2022-08-04T13:00:07;8.82;;;3.28;;
23266;SDS011;11802;53.160;8.214;2022-08-04T13:02:36;6.07;;;2.90;;
23266;SDS011;11802;53.160;8.214;2022-08-04T13:05:06;5.18;;;2.90;;
23266;SDS011;11802;53.160;8.214;2022-08-04T13:07:41;9.02;;;2.80;;
23266;SDS011;11802;53.160;8.214;2022-08-04T13:10:10;7.88;;;2.80;;
23266;SDS011;11802;53.160;8.214;2022-08-04T13:12:37;7.88;;;2.90;;
23266;SDS011;11802;53.160;8.214;2022-08-04T13:15:15;7.55;;;2.72;;
23266;SDS011;11802;53.160;8.214;2022-08-04T13:17:58;8.85;;;3.40;;
23266;SDS011;11802;53.160;8.214;2022-08-04T13:20:27;11.27;;;3.10;;
23266;SDS011;11802;53.160;8.214;2022-08-04T13:23:04;12.52;;;3.13;;
23266;SDS011;11802;53.160;8.214;2022-08-04T13:25:32;8.77;;;2.72;;
23266;SDS011;11802;53.160;8.214;2022-08-04T13:28:00;5.97;;;2.47;;
23266;SDS011;11802;53.160;8.214;2022-08-04T13:30:26;8.68;;;2.80;;
23266;SDS011;11802;53.160;8.214;2022-08-04T13:32:56;8.18;;;2.75;;
23266;SDS011;11802;53.160;8.214;2022-08-04T13:35:25;7.95;;;2.67;;
23266;SDS011;11802;53.160;8.214;2022-08-04T13:37:53;5.72;;;2.65;;
23266;SDS011;11802;53.160;8.214;2022-08-04T13:40:26;7.95;;;2.80;;
23266;SDS011;11802;53.160;8.214;2022-08-04T13:42:52;7.65;;;2.85;;
23266;SDS011;11802;53.160;8.214;2022-08-04T13:45:20;6.93;;;2.33;;
23266;SDS011;11802;53.160;8.214;2022-08-04T13:47:47;6.75;;;2.33;;
23266;SDS011;11802;53.160;8.214;2022-08-04T13:52:49;6.53;;;2.92;;
23266;SDS011;11802;53.160;8.214;2022-08-04T13:55:38;7.80;;;3.30;;
23266;SDS011;11802;53.160;8.214;2022-08-04T13:58:10;11.20;;;3.63;;
23266;SDS011;11802;53.160;8.214;2022-08-04T14:00:47;12.40;;;4.47;;
23266;SDS011;11802;53.160;8.214;2022-08-04T14:03:25;9.73;;;4.40;;
23266;SDS011;11802;53.160;8.214;2022-08-04T14:06:14;8.00;;;3.47;;
23266;SDS011;11802;53.160;8.214;2022-08-04T14:09:20;4.25;;;2.58;;
23266;SDS011;11802;53.160;8.214;2022-08-04T14:11:46;4.88;;;2.88;;
23266;SDS011;11802;53.160;8.214;2022-08-04T14:14:21;4.97;;;3.00;;
23266;SDS011;11802;53.160;8.214;2022-08-04T14:17:23;7.00;;;2.60;;
23266;SDS011;11802;53.160;8.214;2022-08-04T14:19:56;6.30;;;2.60;;
23266;SDS011;11802;53.160;8.214;2022-08-04T14:24:58;8.52;;;2.58;;
23266;SDS011;11802;53.160;8.214;2022-08-04T14:27:48;4.65;;;2.20;;
23266;SDS011;11802;53.160;8.214;2022-08-04T14:30:32;5.85;;;2.30;;
23266;SDS011;11802;53.160;8.214;2022-08-04T14:33:00;5.10;;;2.90;;
23266;SDS011;11802;53.160;8.214;2022-08-04T14:35:28;8.00;;;3.25;;
23266;SDS011;11802;53.160;8.214;2022-08-04T14:37:56;6.75;;;2.92;;
23266;SDS011;11802;53.160;8.214;2022-08-04T14:40:27;4.82;;;2.53;;
23266;SDS011;11802;53.160;8.214;2022-08-04T14:42:55;4.93;;;2.75;;
23266;SDS011;11802;53.160;8.214;2022-08-04T14:45:32;7.78;;;2.30;;
23266;SDS011;11802;53.160;8.214;2022-08-04T14:48:05;6.13;;;2.58;;
23266;SDS011;11802;53.160;8.214;2022-08-04T14:53:13;4.32;;;2.08;;
23266;SDS011;11802;53.160;8.214;2022-08-04T14:55:51;6.30;;;2.40;;
23266;SDS011;11802;53.160;8.214;2022-08-04T14:58:39;4.80;;;2.20;;
23266;SDS011;11802;53.160;8.214;2022-08-04T15:01:05;4.70;;;2.20;;
23266;SDS011;11802;53.160;8.214;2022-08-04T15:03:33;4.60;;;2.10;;
23266;SDS011;11802;53.160;8.214;2022-08-04T15:06:03;7.70;;;2.15;;
23266;SDS011;11802;53.160;8.214;2022-08-04T15:08:28;5.38;;;1.98;;
23266;SDS011;11802;53.160;8.214;2022-08-04T15:10:54;4.68;;;1.92;;
23266;SDS011;11802;53.160;8.214;2022-08-04T15:13:26;4.57;;;1.75;;
23266;SDS011;11802;53.160;8.214;2022-08-04T15:15:53;3.80;;;1.83;;
23266;SDS011;11802;53.160;8.214;2022-08-04T15:18:19;5.00;;;2.03;;
23266;SDS011;11802;53.160;8.214;2022-08-04T15:20:44;4.72;;;1.80;;
23266;SDS011;11802;53.160;8.214;2022-08-04T15:23:10;4.72;;;1.83;;
23266;SDS011;11802;53.160;8.214;2022-08-04T15:25:37;8.50;;;2.20;;
23266;SDS011;11802;53.160;8.214;2022-08-04T15:28:07;5.30;;;1.80;;
23266;SDS011;11802;53.160;8.214;2022-08-04T15:30:38;2.30;;;1.63;;
23266;SDS011;11802;53.160;8.214;2022-08-04T15:33:04;2.20;;;1.60;;
23266;SDS011;11802;53.160;8.214;2022-08-04T15:35:31;7.10;;;2.08;;
23266;SDS011;11802;53.160;8.214;2022-08-04T15:38:00;7.22;;;2.00;;
23266;SDS011;11802;53.160;8.214;2022-08-04T15:43:06;4.55;;;2.00;;
23266;SDS011;11802;53.160;8.214;2022-08-04T15:45:55;3.75;;;1.75;;
23266;SDS011;11802;53.160;8.214;2022-08-04T15:48:26;3.10;;;1.70;;
23266;SDS011;11802;53.160;8.214;2022-08-04T15:53:28;3.17;;;1.48;;
23266;SDS011;11802;53.160;8.214;2022-08-04T15:55:57;4.65;;;1.60;;
23266;SDS011;11802;53.160;8.214;2022-08-04T15:58:22;4.10;;;1.52;;
23266;SDS011;11802;53.160;8.214;2022-08-04T16:05:58;5.95;;;1.40;;
23266;SDS011;11802;53.160;8.214;2022-08-04T16:08:24;3.45;;;1.67;;
23266;SDS011;11802;53.160;8.214;2022-08-04T16:10:50;3.50;;;1.80;;
23266;SDS011;11802;53.160;8.214;2022-08-04T16:13:20;3.35;;;1.60;;
23266;SDS011;11802;53.160;8.214;2022-08-04T16:15:53;5.20;;;1.40;;
23266;SDS011;11802;53.160;8.214;2022-08-04T16:20:56;3.50;;;1.67;;
23266;SDS011;11802;53.160;8.214;2022-08-04T16:23:34;4.15;;;1.27;;
23266;SDS011;11802;53.160;8.214;2022-08-04T16:26:04;5.80;;;1.42;;
23266;SDS011;11802;53.160;8.214;2022-08-04T16:28:36;4.15;;;1.63;;
23266;SDS011;11802;53.160;8.214;2022-08-04T16:31:07;3.47;;;1.55;;
23266;SDS011;11802;53.160;8.214;2022-08-04T16:33:34;4.13;;;1.70;;
23266;SDS011;11802;53.160;8.214;2022-08-04T16:36:00;5.95;;;1.77;;
23266;SDS011;11802;53.160;8.214;2022-08-04T16:38:26;4.35;;;1.58;;
23266;SDS011;11802;53.160;8.214;2022-08-04T16:40:56;9.75;;;1.80;;
23266;SDS011;11802;53.160;8.214;2022-08-04T16:43:25;3.70;;;1.73;;
23266;SDS011;11802;53.160;8.214;2022-08-04T16:45:54;3.85;;;1.55;;
23266;SDS011;11802;53.160;8.214;2022-08-04T16:48:28;4.75;;;1.85;;
23266;SDS011;11802;53.160;8.214;2022-08-04T16:53:24;3.67;;;1.52;;
23266;SDS011;11802;53.160;8.214;2022-08-04T16:55:53;3.95;;;1.30;;
23266;SDS011;11802;53.160;8.214;2022-08-04T16:58:23;6.03;;;1.45;;
23266;SDS011;11802;53.160;8.214;2022-08-04T17:00:54;2.95;;;1.42;;
23266;SDS011;11802;53.160;8.214;2022-08-04T17:03:20;3.90;;;1.17;;
23266;SDS011;11802;53.160;8.214;2022-08-04T17:05:45;3.17;;;1.38;;
23266;SDS011;11802;53.160;8.214;2022-08-04T17:08:11;4.55;;;1.20;;
23266;SDS011;11802;53.160;8.214;2022-08-04T17:10:43;5.28;;;1.60;;
23266;SDS011;11802;53.160;8.214;2022-08-04T17:15:53;3.45;;;1.50;;
23266;SDS011;11802;53.160;8.214;2022-08-04T17:18:24;2.78;;;1.25;;
23266;SDS011;11802;53.160;8.214;2022-08-04T17:20:55;4.63;;;1.10;;
23266;SDS011;11802;53.160;8.214;2022-08-04T17:25:55;3.72;;;1.35;;
23266;SDS011;11802;53.160;8.214;2022-08-04T17:28:23;3.30;;;1.40;;
23266;SDS011;11802;53.160;8.214;2022-08-04T17:30:49;8.27;;;1.50;;
23266;SDS011;11802;53.160;8.214;2022-08-04T17:33:15;5.30;;;1.38;;
23266;SDS011;11802;53.160;8.214;2022-08-04T17:35:42;3.88;;;1.42;;
23266;SDS011;11802;53.160;8.214;2022-08-04T17:38:08;4.43;;;1.63;;
23266;SDS011;11802;53.160;8.214;2022-08-04T17:40:34;5.28;;;1.65;;
23266;SDS011;11802;53.160;8.214;2022-08-04T17:43:43;3.88;;;2.00;;
23266;SDS011;11802;53.160;8.214;2022-08-04T17:51:30;8.43;;;1.98;;
23266;SDS011;11802;53.160;8.214;2022-08-04T17:54:01;4.68;;;1.85;;
23266;SDS011;11802;53.160;8.214;2022-08-04T17:56:29;4.25;;;2.00;;
23266;SDS011;11802;53.160;8.214;2022-08-04T17:59:08;6.45;;;1.88;;
23266;SDS011;11802;53.160;8.214;2022-08-04T18:06:58;10.82;;;2.72;;
23266;SDS011;11802;53.160;8.214;2022-08-04T18:09:28;10.02;;;2.80;;
23266;SDS011;11802;53.160;8.214;2022-08-04T18:11:59;7.80;;;2.70;;
23266;SDS011;11802;53.160;8.214;2022-08-04T18:14:27;8.57;;;2.42;;
23266;SDS011;11802;53.160;8.214;2022-08-04T18:17:04;11.45;;;2.70;;
23266;SDS011;11802;53.160;8.214;2022-08-04T18:19:30;9.50;;;2.65;;
23266;SDS011;11802;53.160;8.214;2022-08-04T18:21:55;14.05;;;3.25;;
23266;SDS011;11802;53.160;8.214;2022-08-04T18:24:21;10.48;;;3.00;;
23266;SDS011;11802;53.160;8.214;2022-08-04T18:26:47;10.30;;;3.65;;
23266;SDS011;11802;53.160;8.214;2022-08-04T18:29:12;18.88;;;4.28;;
23266;SDS011;11802;53.160;8.214;2022-08-04T18:31:38;11.48;;;4.03;;
23266;SDS011;11802;53.160;8.214;2022-08-04T18:34:04;12.43;;;4.22;;
23266;SDS011;11802;53.160;8.214;2022-08-04T18:36:31;22.70;;;4.72;;
23266;SDS011;11802;53.160;8.214;2022-08-04T18:38:57;13.45;;;3.45;;
23266;SDS011;11802;53.160;8.214;2022-08-04T18:41:27;16.10;;;4.15;;
23266;SDS011;11802;53.160;8.214;2022-08-04T18:43:53;12.52;;;3.83;;
23266;SDS011;11802;53.160;8.214;2022-08-04T18:46:19;12.05;;;3.83;;
23266;SDS011;11802;53.160;8.214;2022-08-04T18:48:45;13.20;;;3.92;;
23266;SDS011;11802;53.160;8.214;2022-08-04T18:51:11;10.85;;;3.83;;
23266;SDS011;11802;53.160;8.214;2022-08-04T18:53:36;14.48;;;4.43;;
23266;SDS011;11802;53.160;8.214;2022-08-04T18:56:05;15.55;;;4.60;;
23266;SDS011;11802;53.160;8.214;2022-08-04T18:58:30;11.48;;;3.88;;
23266;SDS011;11802;53.160;8.214;2022-08-04T19:00:56;11.93;;;4.55;;
23266;SDS011;11802;53.160;8.214;2022-08-04T19:03:22;18.52;;;5.93;;